sensor_id;sensor_type;location;lat;lon;timestamp;P1;durP1;ratioP1;P2;durP2;ratioP2
70132;SDS011;57495;49.922;7.966;2022-09-17T00:01:36;3.22;;;0.43;;
70132;SDS011;57495;49.922;7.966;2022-09-17T00:03:39;3.47;;;0.65;;
70132;SDS011;57495;49.922;7.966;2022-09-17T00:05:40;5.37;;;0.63;;
70132;SDS011;57495;49.922;7.966;2022-09-17T00:07:42;3.15;;;0.55;;
70132;SDS011;57495;49.922;7.966;2022-09-17T00:09:43;3.83;;;0.60;;
70132;SDS011;57495;49.922;7.966;2022-09-17T00:11:45;5.55;;;0.60;;
70132;SDS011;57495;49.922;7.966;2022-09-17T00:13:47;3.85;;;0.50;;
70132;SDS011;57495;49.922;7.966;2022-09-17T00:15:49;5.20;;;0.60;;
70132;SDS011;57495;49.922;7.966;2022-09-17T00:17:52;4.63;;;0.65;;
70132;SDS011;57495;49.922;7.966;2022-09-17T00:19:57;4.20;;;0.57;;
70132;SDS011;57495;49.922;7.966;2022-09-17T00:21:59;4.15;;;1.08;;
70132;SDS011;57495;49.922;7.966;2022-09-17T00:24:01;4.78;;;0.40;;
70132;SDS011;57495;49.922;7.966;2022-09-17T00:26:06;2.77;;;0.47;;
70132;SDS011;57495;49.922;7.966;2022-09-17T00:28:07;6.53;;;0.82;;
70132;SDS011;57495;49.922;7.966;2022-09-17T00:30:10;2.88;;;0.82;;
70132;SDS011;57495;49.922;7.966;2022-09-17T00:32:12;4.45;;;0.55;;
70132;SDS011;57495;49.922;7.966;2022-09-17T00:34:13;4.63;;;0.63;;
70132;SDS011;57495;49.922;7.966;2022-09-17T00:36:16;6.70;;;0.67;;
70132;SDS011;57495;49.922;7.966;2022-09-17T00:38:19;5.18;;;0.60;;
70132;SDS011;57495;49.922;7.966;2022-09-17T00:40:20;4.38;;;0.68;;
70132;SDS011;57495;49.922;7.966;2022-09-17T00:42:22;5.68;;;0.60;;
70132;SDS011;57495;49.922;7.966;2022-09-17T00:46:53;3.47;;;0.67;;
70132;SDS011;57495;49.922;7.966;2022-09-17T00:48:54;5.18;;;0.60;;
70132;SDS011;57495;49.922;7.966;2022-09-17T00:50:59;2.85;;;0.80;;
70132;SDS011;57495;49.922;7.966;2022-09-17T00:53:04;3.55;;;0.73;;
70132;SDS011;57495;49.922;7.966;2022-09-17T00:55:08;4.32;;;0.80;;
70132;SDS011;57495;49.922;7.966;2022-09-17T00:57:16;6.47;;;0.80;;
70132;SDS011;57495;49.922;7.966;2022-09-17T00:59:18;5.43;;;0.70;;
70132;SDS011;57495;49.922;7.966;2022-09-17T01:01:21;3.85;;;0.70;;
70132;SDS011;57495;49.922;7.966;2022-09-17T01:03:22;4.35;;;0.88;;
70132;SDS011;57495;49.922;7.966;2022-09-17T01:05:26;5.18;;;0.80;;
70132;SDS011;57495;49.922;7.966;2022-09-17T01:07:36;5.67;;;0.80;;
70132;SDS011;57495;49.922;7.966;2022-09-17T01:09:56;5.15;;;1.10;;
70132;SDS011;57495;49.922;7.966;2022-09-17T01:12:07;4.72;;;0.80;;
70132;SDS011;57495;49.922;7.966;2022-09-17T01:14:30;6.57;;;0.90;;
70132;SDS011;57495;49.922;7.966;2022-09-17T01:16:41;5.03;;;1.27;;
70132;SDS011;57495;49.922;7.966;2022-09-17T01:18:56;5.47;;;1.37;;
70132;SDS011;57495;49.922;7.966;2022-09-17T01:23:49;6.85;;;1.50;;
70132;SDS011;57495;49.922;7.966;2022-09-17T01:26:14;6.53;;;1.40;;
70132;SDS011;57495;49.922;7.966;2022-09-17T01:28:43;5.18;;;1.65;;
70132;SDS011;57495;49.922;7.966;2022-09-17T01:31:08;7.47;;;1.30;;
70132;SDS011;57495;49.922;7.966;2022-09-17T01:33:20;3.65;;;1.00;;
70132;SDS011;57495;49.922;7.966;2022-09-17T01:35:30;4.85;;;1.42;;
70132;SDS011;57495;49.922;7.966;2022-09-17T01:37:40;4.63;;;1.35;;
70132;SDS011;57495;49.922;7.966;2022-09-17T01:39:48;3.85;;;1.10;;
70132;SDS011;57495;49.922;7.966;2022-09-17T01:41:57;4.00;;;1.20;;
70132;SDS011;57495;49.922;7.966;2022-09-17T01:44:06;3.00;;;0.88;;
70132;SDS011;57495;49.922;7.966;2022-09-17T01:46:15;4.32;;;0.93;;
70132;SDS011;57495;49.922;7.966;2022-09-17T01:48:22;5.57;;;1.40;;
70132;SDS011;57495;49.922;7.966;2022-09-17T01:50:27;5.32;;;1.48;;
70132;SDS011;57495;49.922;7.966;2022-09-17T01:52:33;4.27;;;1.20;;
70132;SDS011;57495;49.922;7.966;2022-09-17T01:54:38;3.10;;;1.08;;
70132;SDS011;57495;49.922;7.966;2022-09-17T01:56:55;5.15;;;1.10;;
70132;SDS011;57495;49.922;7.966;2022-09-17T01:59:02;4.50;;;1.20;;
70132;SDS011;57495;49.922;7.966;2022-09-17T02:01:07;4.88;;;1.27;;
70132;SDS011;57495;49.922;7.966;2022-09-17T02:03:15;8.40;;;1.30;;
70132;SDS011;57495;49.922;7.966;2022-09-17T02:05:21;6.80;;;1.50;;
70132;SDS011;57495;49.922;7.966;2022-09-17T02:07:27;4.65;;;1.40;;
70132;SDS011;57495;49.922;7.966;2022-09-17T02:09:32;3.50;;;1.08;;
70132;SDS011;57495;49.922;7.966;2022-09-17T02:11:38;4.20;;;1.10;;
70132;SDS011;57495;49.922;7.966;2022-09-17T02:13:45;5.07;;;1.50;;
70132;SDS011;57495;49.922;7.966;2022-09-17T02:15:53;7.13;;;1.45;;
70132;SDS011;57495;49.922;7.966;2022-09-17T02:17:57;5.25;;;1.25;;
70132;SDS011;57495;49.922;7.966;2022-09-17T02:20:06;4.05;;;1.20;;
70132;SDS011;57495;49.922;7.966;2022-09-17T02:22:11;5.85;;;1.38;;
70132;SDS011;57495;49.922;7.966;2022-09-17T02:24:21;6.13;;;1.23;;
70132;SDS011;57495;49.922;7.966;2022-09-17T02:26:24;5.75;;;1.30;;
70132;SDS011;57495;49.922;7.966;2022-09-17T02:28:29;5.80;;;1.42;;
70132;SDS011;57495;49.922;7.966;2022-09-17T02:30:35;4.65;;;1.20;;
70132;SDS011;57495;49.922;7.966;2022-09-17T02:32:37;4.85;;;1.10;;
70132;SDS011;57495;49.922;7.966;2022-09-17T02:34:38;6.80;;;1.30;;
70132;SDS011;57495;49.922;7.966;2022-09-17T02:36:41;4.35;;;1.17;;
70132;SDS011;57495;49.922;7.966;2022-09-17T02:38:43;4.22;;;1.30;;
70132;SDS011;57495;49.922;7.966;2022-09-17T02:40:46;4.80;;;1.60;;
70132;SDS011;57495;49.922;7.966;2022-09-17T02:42:58;5.10;;;1.10;;
70132;SDS011;57495;49.922;7.966;2022-09-17T02:45:10;4.13;;;1.20;;
70132;SDS011;57495;49.922;7.966;2022-09-17T02:47:36;6.10;;;1.40;;
70132;SDS011;57495;49.922;7.966;2022-09-17T02:49:59;4.32;;;1.20;;
70132;SDS011;57495;49.922;7.966;2022-09-17T02:52:19;6.80;;;1.30;;
70132;SDS011;57495;49.922;7.966;2022-09-17T02:54:32;4.82;;;1.00;;
70132;SDS011;57495;49.922;7.966;2022-09-17T02:56:42;4.10;;;1.00;;
70132;SDS011;57495;49.922;7.966;2022-09-17T02:58:51;5.13;;;1.25;;
70132;SDS011;57495;49.922;7.966;2022-09-17T03:01:01;4.35;;;1.33;;
70132;SDS011;57495;49.922;7.966;2022-09-17T03:03:07;5.88;;;1.30;;
70132;SDS011;57495;49.922;7.966;2022-09-17T03:05:13;5.65;;;1.48;;
70132;SDS011;57495;49.922;7.966;2022-09-17T03:07:18;4.93;;;1.10;;
70132;SDS011;57495;49.922;7.966;2022-09-17T03:09:20;6.25;;;1.35;;
70132;SDS011;57495;49.922;7.966;2022-09-17T03:11:22;6.15;;;1.15;;
70132;SDS011;57495;49.922;7.966;2022-09-17T03:13:24;7.13;;;1.05;;
70132;SDS011;57495;49.922;7.966;2022-09-17T03:15:25;5.95;;;1.10;;
70132;SDS011;57495;49.922;7.966;2022-09-17T03:17:27;4.33;;;1.10;;
70132;SDS011;57495;49.922;7.966;2022-09-17T03:19:28;6.35;;;1.90;;
70132;SDS011;57495;49.922;7.966;2022-09-17T03:21:30;4.28;;;1.20;;
70132;SDS011;57495;49.922;7.966;2022-09-17T03:23:33;5.10;;;1.63;;
70132;SDS011;57495;49.922;7.966;2022-09-17T03:25:34;6.40;;;1.50;;
70132;SDS011;57495;49.922;7.966;2022-09-17T03:27:36;3.67;;;1.00;;
70132;SDS011;57495;49.922;7.966;2022-09-17T03:29:37;4.00;;;0.82;;
70132;SDS011;57495;49.922;7.966;2022-09-17T03:31:38;10.45;;;2.08;;
70132;SDS011;57495;49.922;7.966;2022-09-17T03:33:40;5.00;;;1.17;;
70132;SDS011;57495;49.922;7.966;2022-09-17T03:35:41;6.32;;;1.48;;
70132;SDS011;57495;49.922;7.966;2022-09-17T03:37:43;4.80;;;0.83;;
70132;SDS011;57495;49.922;7.966;2022-09-17T03:39:47;6.88;;;1.55;;
70132;SDS011;57495;49.922;7.966;2022-09-17T03:41:49;6.93;;;1.33;;
70132;SDS011;57495;49.922;7.966;2022-09-17T03:43:50;8.90;;;1.20;;
70132;SDS011;57495;49.922;7.966;2022-09-17T03:45:52;5.53;;;1.10;;
70132;SDS011;57495;49.922;7.966;2022-09-17T03:47:53;6.93;;;1.40;;
70132;SDS011;57495;49.922;7.966;2022-09-17T03:49:55;5.78;;;1.20;;
70132;SDS011;57495;49.922;7.966;2022-09-17T03:51:57;6.47;;;1.30;;
70132;SDS011;57495;49.922;7.966;2022-09-17T03:53:58;5.93;;;1.80;;
70132;SDS011;57495;49.922;7.966;2022-09-17T03:56:02;4.63;;;1.15;;
70132;SDS011;57495;49.922;7.966;2022-09-17T03:58:05;5.10;;;1.50;;
70132;SDS011;57495;49.922;7.966;2022-09-17T04:00:07;6.30;;;1.40;;
70132;SDS011;57495;49.922;7.966;2022-09-17T04:02:09;3.63;;;0.82;;
70132;SDS011;57495;49.922;7.966;2022-09-17T04:04:10;4.78;;;1.23;;
70132;SDS011;57495;49.922;7.966;2022-09-17T04:06:12;4.18;;;0.98;;
70132;SDS011;57495;49.922;7.966;2022-09-17T04:08:13;7.17;;;1.07;;
70132;SDS011;57495;49.922;7.966;2022-09-17T04:10:14;3.78;;;1.48;;
70132;SDS011;57495;49.922;7.966;2022-09-17T04:12:17;4.90;;;1.33;;
70132;SDS011;57495;49.922;7.966;2022-09-17T04:14:19;5.53;;;1.10;;
70132;SDS011;57495;49.922;7.966;2022-09-17T04:16:20;6.45;;;1.02;;
70132;SDS011;57495;49.922;7.966;2022-09-17T04:18:22;4.43;;;0.90;;
70132;SDS011;57495;49.922;7.966;2022-09-17T04:20:23;3.33;;;0.82;;
70132;SDS011;57495;49.922;7.966;2022-09-17T04:22:25;5.35;;;1.00;;
70132;SDS011;57495;49.922;7.966;2022-09-17T04:24:27;3.20;;;0.68;;
70132;SDS011;57495;49.922;7.966;2022-09-17T04:26:28;7.18;;;1.20;;
70132;SDS011;57495;49.922;7.966;2022-09-17T04:28:31;4.90;;;1.10;;
70132;SDS011;57495;49.922;7.966;2022-09-17T04:30:32;4.63;;;0.90;;
70132;SDS011;57495;49.922;7.966;2022-09-17T04:32:34;5.50;;;1.17;;
70132;SDS011;57495;49.922;7.966;2022-09-17T04:34:35;7.20;;;1.00;;
70132;SDS011;57495;49.922;7.966;2022-09-17T04:36:36;5.18;;;1.10;;
70132;SDS011;57495;49.922;7.966;2022-09-17T04:38:38;5.20;;;1.20;;
70132;SDS011;57495;49.922;7.966;2022-09-17T04:40:39;6.32;;;1.10;;
70132;SDS011;57495;49.922;7.966;2022-09-17T04:42:41;6.65;;;0.95;;
70132;SDS011;57495;49.922;7.966;2022-09-17T04:44:44;5.88;;;0.98;;
70132;SDS011;57495;49.922;7.966;2022-09-17T04:46:45;4.15;;;0.70;;
70132;SDS011;57495;49.922;7.966;2022-09-17T04:48:46;3.43;;;0.70;;
70132;SDS011;57495;49.922;7.966;2022-09-17T04:50:48;4.65;;;1.00;;
70132;SDS011;57495;49.922;7.966;2022-09-17T04:52:49;4.05;;;0.80;;
70132;SDS011;57495;49.922;7.966;2022-09-17T04:54:51;4.63;;;0.75;;
70132;SDS011;57495;49.922;7.966;2022-09-17T04:56:52;4.40;;;0.90;;
70132;SDS011;57495;49.922;7.966;2022-09-17T04:58:53;5.07;;;0.77;;
70132;SDS011;57495;49.922;7.966;2022-09-17T05:00:56;3.83;;;0.82;;
70132;SDS011;57495;49.922;7.966;2022-09-17T05:02:57;3.67;;;0.73;;
70132;SDS011;57495;49.922;7.966;2022-09-17T05:04:59;5.50;;;1.08;;
70132;SDS011;57495;49.922;7.966;2022-09-17T05:07:00;6.80;;;1.10;;
70132;SDS011;57495;49.922;7.966;2022-09-17T05:09:02;4.57;;;0.97;;
70132;SDS011;57495;49.922;7.966;2022-09-17T05:11:03;5.50;;;1.08;;
70132;SDS011;57495;49.922;7.966;2022-09-17T05:13:05;4.78;;;1.30;;
70132;SDS011;57495;49.922;7.966;2022-09-17T05:15:06;7.70;;;0.90;;
70132;SDS011;57495;49.922;7.966;2022-09-17T05:17:09;6.38;;;0.98;;
70132;SDS011;57495;49.922;7.966;2022-09-17T05:19:11;6.63;;;1.27;;
70132;SDS011;57495;49.922;7.966;2022-09-17T05:21:12;6.05;;;1.45;;
70132;SDS011;57495;49.922;7.966;2022-09-17T05:23:13;4.63;;;1.30;;
70132;SDS011;57495;49.922;7.966;2022-09-17T05:25:16;6.30;;;1.00;;
70132;SDS011;57495;49.922;7.966;2022-09-17T05:27:19;7.85;;;1.25;;
70132;SDS011;57495;49.922;7.966;2022-09-17T05:29:20;9.43;;;1.00;;
70132;SDS011;57495;49.922;7.966;2022-09-17T05:31:21;4.63;;;1.40;;
70132;SDS011;57495;49.922;7.966;2022-09-17T05:33:24;4.70;;;1.00;;
70132;SDS011;57495;49.922;7.966;2022-09-17T05:35:26;8.32;;;1.20;;
70132;SDS011;57495;49.922;7.966;2022-09-17T05:37:27;5.60;;;1.30;;
70132;SDS011;57495;49.922;7.966;2022-09-17T05:39:29;6.53;;;1.40;;
70132;SDS011;57495;49.922;7.966;2022-09-17T05:41:32;7.80;;;0.98;;
70132;SDS011;57495;49.922;7.966;2022-09-17T05:43:34;6.18;;;1.10;;
70132;SDS011;57495;49.922;7.966;2022-09-17T05:45:36;8.63;;;1.33;;
70132;SDS011;57495;49.922;7.966;2022-09-17T05:47:38;7.53;;;1.02;;
70132;SDS011;57495;49.922;7.966;2022-09-17T05:49:41;9.03;;;1.40;;
70132;SDS011;57495;49.922;7.966;2022-09-17T05:51:42;7.82;;;1.67;;
70132;SDS011;57495;49.922;7.966;2022-09-17T05:53:43;6.13;;;1.75;;
70132;SDS011;57495;49.922;7.966;2022-09-17T05:55:45;10.35;;;2.65;;
70132;SDS011;57495;49.922;7.966;2022-09-17T05:57:46;9.43;;;2.80;;
70132;SDS011;57495;49.922;7.966;2022-09-17T05:59:48;8.93;;;3.60;;
70132;SDS011;57495;49.922;7.966;2022-09-17T06:01:49;14.13;;;3.85;;
70132;SDS011;57495;49.922;7.966;2022-09-17T06:03:51;11.98;;;3.90;;
70132;SDS011;57495;49.922;7.966;2022-09-17T06:05:54;9.32;;;3.67;;
70132;SDS011;57495;49.922;7.966;2022-09-17T06:07:57;11.10;;;4.13;;
70132;SDS011;57495;49.922;7.966;2022-09-17T06:09:58;10.37;;;3.17;;
70132;SDS011;57495;49.922;7.966;2022-09-17T06:12:00;9.20;;;2.22;;
70132;SDS011;57495;49.922;7.966;2022-09-17T06:14:01;7.57;;;2.40;;
70132;SDS011;57495;49.922;7.966;2022-09-17T06:16:03;12.70;;;2.97;;
70132;SDS011;57495;49.922;7.966;2022-09-17T06:18:05;8.70;;;2.05;;
70132;SDS011;57495;49.922;7.966;2022-09-17T06:20:06;9.83;;;2.53;;
70132;SDS011;57495;49.922;7.966;2022-09-17T06:22:10;10.77;;;1.88;;
70132;SDS011;57495;49.922;7.966;2022-09-17T06:24:11;7.65;;;1.80;;
70132;SDS011;57495;49.922;7.966;2022-09-17T06:26:13;8.45;;;2.10;;
70132;SDS011;57495;49.922;7.966;2022-09-17T06:28:15;6.78;;;1.77;;
70132;SDS011;57495;49.922;7.966;2022-09-17T06:30:16;5.83;;;1.43;;
70132;SDS011;57495;49.922;7.966;2022-09-17T06:32:18;15.57;;;1.75;;
70132;SDS011;57495;49.922;7.966;2022-09-17T06:34:19;8.15;;;1.48;;
70132;SDS011;57495;49.922;7.966;2022-09-17T06:36:21;6.10;;;1.23;;
70132;SDS011;57495;49.922;7.966;2022-09-17T06:38:23;6.32;;;1.15;;
70132;SDS011;57495;49.922;7.966;2022-09-17T06:40:25;8.13;;;1.27;;
70132;SDS011;57495;49.922;7.966;2022-09-17T06:42:26;6.72;;;1.23;;
70132;SDS011;57495;49.922;7.966;2022-09-17T06:44:28;5.70;;;1.30;;
70132;SDS011;57495;49.922;7.966;2022-09-17T06:46:29;9.32;;;0.90;;
70132;SDS011;57495;49.922;7.966;2022-09-17T06:48:32;6.72;;;1.45;;
70132;SDS011;57495;49.922;7.966;2022-09-17T06:50:35;4.87;;;1.00;;
70132;SDS011;57495;49.922;7.966;2022-09-17T06:52:36;8.00;;;1.38;;
70132;SDS011;57495;49.922;7.966;2022-09-17T06:54:39;6.15;;;0.93;;
70132;SDS011;57495;49.922;7.966;2022-09-17T06:56:40;7.47;;;0.77;;
70132;SDS011;57495;49.922;7.966;2022-09-17T06:58:42;5.75;;;1.10;;
70132;SDS011;57495;49.922;7.966;2022-09-17T07:00:43;7.37;;;1.20;;
70132;SDS011;57495;49.922;7.966;2022-09-17T07:02:53;8.18;;;0.90;;
70132;SDS011;57495;49.922;7.966;2022-09-17T07:04:55;8.38;;;1.13;;
70132;SDS011;57495;49.922;7.966;2022-09-17T07:06:57;6.78;;;1.00;;
70132;SDS011;57495;49.922;7.966;2022-09-17T07:08:58;5.43;;;0.98;;
70132;SDS011;57495;49.922;7.966;2022-09-17T07:11:01;5.47;;;1.23;;
70132;SDS011;57495;49.922;7.966;2022-09-17T07:13:02;5.85;;;1.00;;
70132;SDS011;57495;49.922;7.966;2022-09-17T07:15:04;6.65;;;1.00;;
70132;SDS011;57495;49.922;7.966;2022-09-17T07:17:06;7.30;;;1.65;;
70132;SDS011;57495;49.922;7.966;2022-09-17T07:19:07;7.78;;;1.13;;
70132;SDS011;57495;49.922;7.966;2022-09-17T07:21:09;6.97;;;1.17;;
70132;SDS011;57495;49.922;7.966;2022-09-17T07:23:11;6.43;;;1.02;;
70132;SDS011;57495;49.922;7.966;2022-09-17T07:25:12;7.15;;;1.00;;
70132;SDS011;57495;49.922;7.966;2022-09-17T07:27:16;4.65;;;1.15;;
70132;SDS011;57495;49.922;7.966;2022-09-17T07:29:17;8.45;;;1.17;;
70132;SDS011;57495;49.922;7.966;2022-09-17T07:31:20;4.97;;;0.70;;
70132;SDS011;57495;49.922;7.966;2022-09-17T07:33:23;5.32;;;0.88;;
70132;SDS011;57495;49.922;7.966;2022-09-17T07:35:26;11.77;;;1.27;;
70132;SDS011;57495;49.922;7.966;2022-09-17T07:37:27;9.10;;;0.93;;
70132;SDS011;57495;49.922;7.966;2022-09-17T07:39:29;5.95;;;0.82;;
70132;SDS011;57495;49.922;7.966;2022-09-17T07:41:30;7.57;;;1.00;;
70132;SDS011;57495;49.922;7.966;2022-09-17T07:43:34;6.43;;;0.90;;
70132;SDS011;57495;49.922;7.966;2022-09-17T07:45:36;9.45;;;1.20;;
70132;SDS011;57495;49.922;7.966;2022-09-17T07:47:38;8.98;;;1.17;;
70132;SDS011;57495;49.922;7.966;2022-09-17T07:49:40;6.30;;;0.93;;
70132;SDS011;57495;49.922;7.966;2022-09-17T07:51:41;5.40;;;0.73;;
70132;SDS011;57495;49.922;7.966;2022-09-17T07:53:43;7.40;;;1.23;;
70132;SDS011;57495;49.922;7.966;2022-09-17T07:55:49;7.40;;;1.20;;
70132;SDS011;57495;49.922;7.966;2022-09-17T07:57:51;9.50;;;1.48;;
70132;SDS011;57495;49.922;7.966;2022-09-17T07:59:54;3.72;;;0.63;;
70132;SDS011;57495;49.922;7.966;2022-09-17T08:01:55;9.23;;;0.90;;
70132;SDS011;57495;49.922;7.966;2022-09-17T08:03:57;5.63;;;0.63;;
70132;SDS011;57495;49.922;7.966;2022-09-17T08:06:02;6.30;;;0.88;;
70132;SDS011;57495;49.922;7.966;2022-09-17T08:08:04;6.72;;;0.88;;
70132;SDS011;57495;49.922;7.966;2022-09-17T08:10:05;9.15;;;1.10;;
70132;SDS011;57495;49.922;7.966;2022-09-17T08:12:08;6.37;;;0.87;;
70132;SDS011;57495;49.922;7.966;2022-09-17T08:14:10;6.90;;;0.90;;
70132;SDS011;57495;49.922;7.966;2022-09-17T08:16:14;7.53;;;1.00;;
70132;SDS011;57495;49.922;7.966;2022-09-17T08:18:16;10.27;;;1.08;;
70132;SDS011;57495;49.922;7.966;2022-09-17T08:20:18;5.95;;;0.80;;
70132;SDS011;57495;49.922;7.966;2022-09-17T08:22:19;7.00;;;0.90;;
70132;SDS011;57495;49.922;7.966;2022-09-17T08:24:21;6.22;;;0.70;;
70132;SDS011;57495;49.922;7.966;2022-09-17T08:26:22;6.10;;;0.80;;
70132;SDS011;57495;49.922;7.966;2022-09-17T08:28:25;7.28;;;0.80;;
70132;SDS011;57495;49.922;7.966;2022-09-17T08:30:27;5.22;;;0.63;;
70132;SDS011;57495;49.922;7.966;2022-09-17T08:32:32;6.83;;;1.10;;
70132;SDS011;57495;49.922;7.966;2022-09-17T08:34:33;9.75;;;0.90;;
70132;SDS011;57495;49.922;7.966;2022-09-17T08:36:36;8.52;;;0.82;;
70132;SDS011;57495;49.922;7.966;2022-09-17T08:38:38;6.30;;;0.80;;
70132;SDS011;57495;49.922;7.966;2022-09-17T08:40:41;10.55;;;1.45;;
70132;SDS011;57495;49.922;7.966;2022-09-17T08:42:50;5.57;;;1.33;;
70132;SDS011;57495;49.922;7.966;2022-09-17T08:44:58;5.43;;;0.90;;
70132;SDS011;57495;49.922;7.966;2022-09-17T08:47:07;6.90;;;0.98;;
70132;SDS011;57495;49.922;7.966;2022-09-17T08:49:18;7.18;;;0.63;;
70132;SDS011;57495;49.922;7.966;2022-09-17T08:51:30;6.72;;;1.10;;
70132;SDS011;57495;49.922;7.966;2022-09-17T08:53:47;6.10;;;1.03;;
70132;SDS011;57495;49.922;7.966;2022-09-17T08:55:58;6.72;;;0.95;;
70132;SDS011;57495;49.922;7.966;2022-09-17T08:58:06;8.45;;;1.00;;
70132;SDS011;57495;49.922;7.966;2022-09-17T09:00:23;5.13;;;1.00;;
70132;SDS011;57495;49.922;7.966;2022-09-17T09:02:32;4.90;;;0.70;;
70132;SDS011;57495;49.922;7.966;2022-09-17T09:04:55;5.00;;;0.70;;
70132;SDS011;57495;49.922;7.966;2022-09-17T09:07:03;7.32;;;0.80;;
70132;SDS011;57495;49.922;7.966;2022-09-17T09:09:09;6.03;;;0.60;;
70132;SDS011;57495;49.922;7.966;2022-09-17T09:11:15;4.35;;;0.55;;
70132;SDS011;57495;49.922;7.966;2022-09-17T09:13:21;4.97;;;0.85;;
70132;SDS011;57495;49.922;7.966;2022-09-17T09:15:31;6.40;;;0.90;;
70132;SDS011;57495;49.922;7.966;2022-09-17T09:17:37;5.38;;;0.43;;
70132;SDS011;57495;49.922;7.966;2022-09-17T09:19:43;8.90;;;0.75;;
70132;SDS011;57495;49.922;7.966;2022-09-17T09:21:50;5.28;;;0.95;;
70132;SDS011;57495;49.922;7.966;2022-09-17T09:24:15;6.45;;;0.85;;
70132;SDS011;57495;49.922;7.966;2022-09-17T09:26:22;4.97;;;0.60;;
70132;SDS011;57495;49.922;7.966;2022-09-17T09:28:41;7.25;;;0.40;;
70132;SDS011;57495;49.922;7.966;2022-09-17T09:30:55;7.57;;;0.90;;
70132;SDS011;57495;49.922;7.966;2022-09-17T09:33:05;7.18;;;0.70;;
70132;SDS011;57495;49.922;7.966;2022-09-17T09:35:14;6.28;;;0.90;;
70132;SDS011;57495;49.922;7.966;2022-09-17T09:37:21;6.93;;;0.67;;
70132;SDS011;57495;49.922;7.966;2022-09-17T09:39:25;7.82;;;0.80;;
70132;SDS011;57495;49.922;7.966;2022-09-17T09:41:35;5.85;;;0.90;;
70132;SDS011;57495;49.922;7.966;2022-09-17T09:43:43;5.78;;;0.63;;
70132;SDS011;57495;49.922;7.966;2022-09-17T09:45:53;4.95;;;0.73;;
70132;SDS011;57495;49.922;7.966;2022-09-17T09:48:05;5.30;;;0.60;;
70132;SDS011;57495;49.922;7.966;2022-09-17T09:50:23;6.38;;;0.60;;
70132;SDS011;57495;49.922;7.966;2022-09-17T09:52:38;3.90;;;0.50;;
70132;SDS011;57495;49.922;7.966;2022-09-17T09:54:51;7.72;;;0.80;;
70132;SDS011;57495;49.922;7.966;2022-09-17T09:57:02;4.47;;;0.70;;
70132;SDS011;57495;49.922;7.966;2022-09-17T09:59:10;6.77;;;0.73;;
70132;SDS011;57495;49.922;7.966;2022-09-17T10:01:12;6.95;;;0.75;;
70132;SDS011;57495;49.922;7.966;2022-09-17T10:03:15;7.25;;;0.93;;
70132;SDS011;57495;49.922;7.966;2022-09-17T10:05:20;6.60;;;0.88;;
70132;SDS011;57495;49.922;7.966;2022-09-17T10:07:21;5.90;;;0.70;;
70132;SDS011;57495;49.922;7.966;2022-09-17T10:09:24;6.37;;;1.10;;
70132;SDS011;57495;49.922;7.966;2022-09-17T10:11:27;4.63;;;0.98;;
70132;SDS011;57495;49.922;7.966;2022-09-17T10:13:32;8.77;;;1.00;;
70132;SDS011;57495;49.922;7.966;2022-09-17T10:15:35;5.68;;;0.80;;
70132;SDS011;57495;49.922;7.966;2022-09-17T10:17:37;7.45;;;0.98;;
70132;SDS011;57495;49.922;7.966;2022-09-17T10:19:38;4.67;;;0.60;;
70132;SDS011;57495;49.922;7.966;2022-09-17T10:21:41;6.13;;;0.63;;
70132;SDS011;57495;49.922;7.966;2022-09-17T10:23:43;8.50;;;0.77;;
70132;SDS011;57495;49.922;7.966;2022-09-17T10:25:45;5.40;;;0.63;;
70132;SDS011;57495;49.922;7.966;2022-09-17T10:27:48;7.03;;;1.40;;
70132;SDS011;57495;49.922;7.966;2022-09-17T10:29:51;4.50;;;0.50;;
70132;SDS011;57495;49.922;7.966;2022-09-17T10:31:58;7.18;;;0.80;;
70132;SDS011;57495;49.922;7.966;2022-09-17T10:34:00;5.85;;;0.50;;
70132;SDS011;57495;49.922;7.966;2022-09-17T10:36:04;4.70;;;0.55;;
70132;SDS011;57495;49.922;7.966;2022-09-17T10:38:24;9.32;;;0.88;;
70132;SDS011;57495;49.922;7.966;2022-09-17T10:40:28;4.90;;;0.60;;
70132;SDS011;57495;49.922;7.966;2022-09-17T10:42:32;7.90;;;0.80;;
70132;SDS011;57495;49.922;7.966;2022-09-17T10:44:34;4.78;;;0.60;;
70132;SDS011;57495;49.922;7.966;2022-09-17T10:46:36;4.22;;;0.60;;
70132;SDS011;57495;49.922;7.966;2022-09-17T10:48:39;4.68;;;0.70;;
70132;SDS011;57495;49.922;7.966;2022-09-17T10:50:46;6.00;;;0.60;;
70132;SDS011;57495;49.922;7.966;2022-09-17T10:52:48;4.35;;;0.63;;
70132;SDS011;57495;49.922;7.966;2022-09-17T10:54:56;6.93;;;0.65;;
70132;SDS011;57495;49.922;7.966;2022-09-17T10:57:05;3.95;;;0.43;;
70132;SDS011;57495;49.922;7.966;2022-09-17T10:59:21;5.78;;;0.77;;
70132;SDS011;57495;49.922;7.966;2022-09-17T11:01:37;5.77;;;0.80;;
70132;SDS011;57495;49.922;7.966;2022-09-17T11:03:52;3.92;;;0.43;;
70132;SDS011;57495;49.922;7.966;2022-09-17T11:06:09;7.03;;;0.63;;
70132;SDS011;57495;49.922;7.966;2022-09-17T11:08:20;4.43;;;0.60;;
70132;SDS011;57495;49.922;7.966;2022-09-17T11:10:31;8.00;;;0.75;;
70132;SDS011;57495;49.922;7.966;2022-09-17T11:12:49;5.73;;;0.53;;
70132;SDS011;57495;49.922;7.966;2022-09-17T11:15:05;2.92;;;0.40;;
70132;SDS011;57495;49.922;7.966;2022-09-17T11:17:27;7.38;;;0.60;;
70132;SDS011;57495;49.922;7.966;2022-09-17T11:19:42;6.80;;;0.95;;
70132;SDS011;57495;49.922;7.966;2022-09-17T11:21:48;3.92;;;0.43;;
70132;SDS011;57495;49.922;7.966;2022-09-17T11:26:29;4.93;;;0.77;;
70132;SDS011;57495;49.922;7.966;2022-09-17T11:28:39;5.72;;;0.60;;
70132;SDS011;57495;49.922;7.966;2022-09-17T11:30:55;5.93;;;0.80;;
70132;SDS011;57495;49.922;7.966;2022-09-17T11:33:15;6.30;;;0.77;;
70132;SDS011;57495;49.922;7.966;2022-09-17T11:35:28;3.27;;;0.40;;
70132;SDS011;57495;49.922;7.966;2022-09-17T11:37:34;5.43;;;0.45;;
70132;SDS011;57495;49.922;7.966;2022-09-17T11:39:41;4.00;;;0.50;;
70132;SDS011;57495;49.922;7.966;2022-09-17T11:41:47;3.83;;;0.40;;
70132;SDS011;57495;49.922;7.966;2022-09-17T11:44:02;7.93;;;1.08;;
70132;SDS011;57495;49.922;7.966;2022-09-17T11:46:12;7.13;;;1.77;;
70132;SDS011;57495;49.922;7.966;2022-09-17T11:48:18;5.22;;;0.88;;
70132;SDS011;57495;49.922;7.966;2022-09-17T11:50:23;7.10;;;0.90;;
70132;SDS011;57495;49.922;7.966;2022-09-17T11:52:29;5.43;;;0.50;;
70132;SDS011;57495;49.922;7.966;2022-09-17T11:54:36;4.53;;;0.65;;
70132;SDS011;57495;49.922;7.966;2022-09-17T11:56:44;4.73;;;0.30;;
70132;SDS011;57495;49.922;7.966;2022-09-17T11:58:50;5.75;;;0.70;;
70132;SDS011;57495;49.922;7.966;2022-09-17T12:00:57;5.53;;;0.80;;
70132;SDS011;57495;49.922;7.966;2022-09-17T12:03:03;4.32;;;0.90;;
70132;SDS011;57495;49.922;7.966;2022-09-17T12:05:16;4.63;;;0.40;;
70132;SDS011;57495;49.922;7.966;2022-09-17T12:07:24;4.07;;;0.40;;
70132;SDS011;57495;49.922;7.966;2022-09-17T12:09:31;3.15;;;0.32;;
70132;SDS011;57495;49.922;7.966;2022-09-17T12:11:39;2.90;;;0.50;;
70132;SDS011;57495;49.922;7.966;2022-09-17T12:13:46;3.70;;;0.28;;
70132;SDS011;57495;49.922;7.966;2022-09-17T12:15:51;4.68;;;0.63;;
70132;SDS011;57495;49.922;7.966;2022-09-17T12:18:10;4.53;;;0.53;;
70132;SDS011;57495;49.922;7.966;2022-09-17T12:20:22;3.92;;;0.50;;
70132;SDS011;57495;49.922;7.966;2022-09-17T12:22:31;3.28;;;0.50;;
70132;SDS011;57495;49.922;7.966;2022-09-17T12:24:37;2.47;;;0.35;;
70132;SDS011;57495;49.922;7.966;2022-09-17T12:26:48;3.17;;;0.40;;
70132;SDS011;57495;49.922;7.966;2022-09-17T12:28:59;3.90;;;0.40;;
70132;SDS011;57495;49.922;7.966;2022-09-17T12:31:08;2.97;;;0.60;;
70132;SDS011;57495;49.922;7.966;2022-09-17T12:33:20;3.10;;;0.50;;
70132;SDS011;57495;49.922;7.966;2022-09-17T12:35:32;3.88;;;0.73;;
70132;SDS011;57495;49.922;7.966;2022-09-17T12:37:53;2.88;;;0.60;;
70132;SDS011;57495;49.922;7.966;2022-09-17T12:40:10;3.07;;;0.50;;
70132;SDS011;57495;49.922;7.966;2022-09-17T12:42:30;6.45;;;0.50;;
70132;SDS011;57495;49.922;7.966;2022-09-17T12:44:46;2.47;;;0.63;;